sensor_id;sensor_type;location;lat;lon;timestamp;P1;durP1;ratioP1;P2;durP2;ratioP2
8675;SDS011;4375;52.486;13.424;2023-05-29T00:00:18;22.87;;;4.40;;
8675;SDS011;4375;52.486;13.424;2023-05-29T00:02:45;19.13;;;3.93;;
8675;SDS011;4375;52.486;13.424;2023-05-29T00:05:12;24.67;;;4.17;;
8675;SDS011;4375;52.486;13.424;2023-05-29T00:07:38;22.60;;;4.10;;
8675;SDS011;4375;52.486;13.424;2023-05-29T00:10:05;19.43;;;4.10;;
8675;SDS011;4375;52.486;13.424;2023-05-29T00:12:32;25.50;;;5.00;;
8675;SDS011;4375;52.486;13.424;2023-05-29T00:14:57;22.93;;;4.27;;
8675;SDS011;4375;52.486;13.424;2023-05-29T00:17:23;22.33;;;4.57;;
8675;SDS011;4375;52.486;13.424;2023-05-29T00:19:49;23.63;;;5.27;;
8675;SDS011;4375;52.486;13.424;2023-05-29T00:22:15;20.70;;;4.30;;
8675;SDS011;4375;52.486;13.424;2023-05-29T00:24:41;22.10;;;4.57;;
8675;SDS011;4375;52.486;13.424;2023-05-29T00:27:07;21.90;;;4.47;;
8675;SDS011;4375;52.486;13.424;2023-05-29T00:29:33;18.90;;;3.97;;
8675;SDS011;4375;52.486;13.424;2023-05-29T00:32:00;20.20;;;4.90;;
8675;SDS011;4375;52.486;13.424;2023-05-29T00:34:26;19.97;;;4.10;;
8675;SDS011;4375;52.486;13.424;2023-05-29T00:36:52;23.20;;;5.13;;
8675;SDS011;4375;52.486;13.424;2023-05-29T00:39:20;21.90;;;4.70;;
8675;SDS011;4375;52.486;13.424;2023-05-29T00:41:46;21.63;;;5.00;;
8675;SDS011;4375;52.486;13.424;2023-05-29T00:44:15;20.50;;;5.13;;
8675;SDS011;4375;52.486;13.424;2023-05-29T00:46:51;23.03;;;4.03;;
8675;SDS011;4375;52.486;13.424;2023-05-29T00:49:18;22.13;;;4.97;;
8675;SDS011;4375;52.486;13.424;2023-05-29T00:51:45;23.47;;;4.63;;
8675;SDS011;4375;52.486;13.424;2023-05-29T00:54:13;27.47;;;4.50;;
8675;SDS011;4375;52.486;13.424;2023-05-29T00:56:42;24.27;;;4.87;;
8675;SDS011;4375;52.486;13.424;2023-05-29T00:59:09;23.33;;;4.60;;
8675;SDS011;4375;52.486;13.424;2023-05-29T01:01:35;24.53;;;4.50;;
8675;SDS011;4375;52.486;13.424;2023-05-29T01:04:01;24.67;;;4.77;;
8675;SDS011;4375;52.486;13.424;2023-05-29T01:06:31;24.03;;;4.87;;
8675;SDS011;4375;52.486;13.424;2023-05-29T01:09:00;22.00;;;4.70;;
8675;SDS011;4375;52.486;13.424;2023-05-29T01:14:01;28.27;;;5.83;;
8675;SDS011;4375;52.486;13.424;2023-05-29T01:16:35;23.90;;;4.50;;
8675;SDS011;4375;52.486;13.424;2023-05-29T01:22:11;21.37;;;5.13;;
8675;SDS011;4375;52.486;13.424;2023-05-29T01:27:22;24.93;;;4.70;;
8675;SDS011;4375;52.486;13.424;2023-05-29T01:29:51;20.73;;;4.53;;
8675;SDS011;4375;52.486;13.424;2023-05-29T01:32:18;30.90;;;5.30;;
8675;SDS011;4375;52.486;13.424;2023-05-29T01:34:45;24.07;;;4.37;;
8675;SDS011;4375;52.486;13.424;2023-05-29T01:37:11;20.87;;;4.33;;
8675;SDS011;4375;52.486;13.424;2023-05-29T01:39:36;17.87;;;4.03;;
8675;SDS011;4375;52.486;13.424;2023-05-29T01:42:02;26.53;;;4.47;;
8675;SDS011;4375;52.486;13.424;2023-05-29T01:44:30;19.80;;;5.00;;
8675;SDS011;4375;52.486;13.424;2023-05-29T01:46:56;31.70;;;5.30;;
8675;SDS011;4375;52.486;13.424;2023-05-29T01:49:25;30.23;;;5.07;;
8675;SDS011;4375;52.486;13.424;2023-05-29T01:51:52;18.90;;;3.80;;
8675;SDS011;4375;52.486;13.424;2023-05-29T01:54:18;21.43;;;4.87;;
8675;SDS011;4375;52.486;13.424;2023-05-29T01:56:44;20.63;;;4.40;;
8675;SDS011;4375;52.486;13.424;2023-05-29T01:59:11;20.87;;;4.07;;
8675;SDS011;4375;52.486;13.424;2023-05-29T02:01:41;19.37;;;4.17;;
8675;SDS011;4375;52.486;13.424;2023-05-29T02:04:07;21.67;;;4.90;;
8675;SDS011;4375;52.486;13.424;2023-05-29T02:06:32;19.60;;;4.33;;
8675;SDS011;4375;52.486;13.424;2023-05-29T02:08:59;20.37;;;4.50;;
8675;SDS011;4375;52.486;13.424;2023-05-29T02:11:24;18.97;;;4.17;;
8675;SDS011;4375;52.486;13.424;2023-05-29T02:13:51;23.10;;;4.40;;
8675;SDS011;4375;52.486;13.424;2023-05-29T02:16:17;18.23;;;4.00;;
8675;SDS011;4375;52.486;13.424;2023-05-29T02:18:45;19.27;;;4.13;;
8675;SDS011;4375;52.486;13.424;2023-05-29T02:21:11;28.17;;;4.73;;
8675;SDS011;4375;52.486;13.424;2023-05-29T02:23:37;18.87;;;3.90;;
8675;SDS011;4375;52.486;13.424;2023-05-29T02:26:03;20.40;;;4.10;;
8675;SDS011;4375;52.486;13.424;2023-05-29T02:28:29;23.37;;;5.00;;
8675;SDS011;4375;52.486;13.424;2023-05-29T02:30:55;19.07;;;4.03;;
8675;SDS011;4375;52.486;13.424;2023-05-29T02:33:20;26.27;;;4.80;;
8675;SDS011;4375;52.486;13.424;2023-05-29T02:35:46;25.20;;;4.70;;
8675;SDS011;4375;52.486;13.424;2023-05-29T02:38:12;24.97;;;4.53;;
8675;SDS011;4375;52.486;13.424;2023-05-29T02:40:37;24.87;;;4.60;;
8675;SDS011;4375;52.486;13.424;2023-05-29T02:43:04;20.80;;;4.40;;
8675;SDS011;4375;52.486;13.424;2023-05-29T02:45:30;20.80;;;4.57;;
8675;SDS011;4375;52.486;13.424;2023-05-29T02:47:56;19.13;;;4.50;;
8675;SDS011;4375;52.486;13.424;2023-05-29T02:50:22;21.20;;;4.43;;
8675;SDS011;4375;52.486;13.424;2023-05-29T02:52:47;24.43;;;5.10;;
8675;SDS011;4375;52.486;13.424;2023-05-29T02:55:13;22.20;;;4.87;;
8675;SDS011;4375;52.486;13.424;2023-05-29T02:57:38;18.17;;;3.93;;
8675;SDS011;4375;52.486;13.424;2023-05-29T03:00:04;22.57;;;5.20;;
8675;SDS011;4375;52.486;13.424;2023-05-29T03:02:32;23.33;;;4.60;;
8675;SDS011;4375;52.486;13.424;2023-05-29T03:04:58;21.43;;;4.60;;
8675;SDS011;4375;52.486;13.424;2023-05-29T03:07:25;19.00;;;5.30;;
8675;SDS011;4375;52.486;13.424;2023-05-29T03:09:51;19.83;;;4.47;;
8675;SDS011;4375;52.486;13.424;2023-05-29T03:12:17;21.40;;;4.73;;
8675;SDS011;4375;52.486;13.424;2023-05-29T03:14:43;20.37;;;4.97;;
8675;SDS011;4375;52.486;13.424;2023-05-29T03:17:09;20.47;;;4.37;;
8675;SDS011;4375;52.486;13.424;2023-05-29T03:19:35;21.80;;;5.50;;
8675;SDS011;4375;52.486;13.424;2023-05-29T03:22:02;20.70;;;4.90;;
8675;SDS011;4375;52.486;13.424;2023-05-29T03:24:28;22.70;;;5.87;;
8675;SDS011;4375;52.486;13.424;2023-05-29T03:26:53;21.13;;;5.30;;
8675;SDS011;4375;52.486;13.424;2023-05-29T03:29:19;21.73;;;6.20;;
8675;SDS011;4375;52.486;13.424;2023-05-29T03:31:45;23.43;;;4.90;;
8675;SDS011;4375;52.486;13.424;2023-05-29T03:34:11;19.00;;;5.13;;
8675;SDS011;4375;52.486;13.424;2023-05-29T03:36:36;24.50;;;5.90;;
8675;SDS011;4375;52.486;13.424;2023-05-29T03:39:02;20.70;;;4.90;;
8675;SDS011;4375;52.486;13.424;2023-05-29T03:41:28;21.83;;;5.43;;
8675;SDS011;4375;52.486;13.424;2023-05-29T03:43:54;19.77;;;4.93;;
8675;SDS011;4375;52.486;13.424;2023-05-29T03:46:20;24.57;;;4.80;;
8675;SDS011;4375;52.486;13.424;2023-05-29T03:48:45;21.43;;;4.77;;
8675;SDS011;4375;52.486;13.424;2023-05-29T03:51:11;21.00;;;4.20;;
8675;SDS011;4375;52.486;13.424;2023-05-29T03:53:36;23.30;;;5.03;;
8675;SDS011;4375;52.486;13.424;2023-05-29T03:56:02;19.13;;;4.40;;
8675;SDS011;4375;52.486;13.424;2023-05-29T03:58:28;21.63;;;4.27;;
8675;SDS011;4375;52.486;13.424;2023-05-29T04:00:53;20.57;;;4.67;;
8675;SDS011;4375;52.486;13.424;2023-05-29T04:03:19;18.27;;;4.50;;
8675;SDS011;4375;52.486;13.424;2023-05-29T04:05:45;20.40;;;4.80;;
8675;SDS011;4375;52.486;13.424;2023-05-29T04:08:11;18.40;;;4.27;;
8675;SDS011;4375;52.486;13.424;2023-05-29T04:10:38;20.47;;;4.67;;
8675;SDS011;4375;52.486;13.424;2023-05-29T04:13:04;21.80;;;4.90;;
8675;SDS011;4375;52.486;13.424;2023-05-29T04:15:31;19.87;;;4.67;;
8675;SDS011;4375;52.486;13.424;2023-05-29T04:17:58;20.93;;;4.70;;
8675;SDS011;4375;52.486;13.424;2023-05-29T04:20:24;19.80;;;4.70;;
8675;SDS011;4375;52.486;13.424;2023-05-29T04:22:50;18.93;;;4.03;;
8675;SDS011;4375;52.486;13.424;2023-05-29T04:25:16;26.60;;;4.90;;
8675;SDS011;4375;52.486;13.424;2023-05-29T04:27:42;21.30;;;4.63;;
8675;SDS011;4375;52.486;13.424;2023-05-29T04:30:13;18.57;;;3.90;;
8675;SDS011;4375;52.486;13.424;2023-05-29T04:32:40;22.57;;;4.90;;
8675;SDS011;4375;52.486;13.424;2023-05-29T04:35:06;17.50;;;3.83;;
8675;SDS011;4375;52.486;13.424;2023-05-29T04:37:32;22.53;;;4.20;;
8675;SDS011;4375;52.486;13.424;2023-05-29T04:40:03;21.20;;;4.37;;
8675;SDS011;4375;52.486;13.424;2023-05-29T04:42:38;19.60;;;4.40;;
8675;SDS011;4375;52.486;13.424;2023-05-29T04:45:05;22.53;;;4.03;;
8675;SDS011;4375;52.486;13.424;2023-05-29T04:47:31;23.87;;;4.40;;
8675;SDS011;4375;52.486;13.424;2023-05-29T04:50:00;23.47;;;3.73;;
8675;SDS011;4375;52.486;13.424;2023-05-29T04:52:26;20.50;;;4.60;;
8675;SDS011;4375;52.486;13.424;2023-05-29T04:54:53;19.23;;;3.87;;
8675;SDS011;4375;52.486;13.424;2023-05-29T04:57:19;20.60;;;3.90;;
8675;SDS011;4375;52.486;13.424;2023-05-29T04:59:45;17.20;;;3.63;;
8675;SDS011;4375;52.486;13.424;2023-05-29T05:02:11;18.70;;;4.73;;
8675;SDS011;4375;52.486;13.424;2023-05-29T05:04:36;22.57;;;4.43;;
8675;SDS011;4375;52.486;13.424;2023-05-29T05:07:02;18.00;;;3.30;;
8675;SDS011;4375;52.486;13.424;2023-05-29T05:09:29;18.90;;;3.50;;
8675;SDS011;4375;52.486;13.424;2023-05-29T05:11:55;20.10;;;4.00;;
8675;SDS011;4375;52.486;13.424;2023-05-29T05:14:21;18.10;;;3.70;;
8675;SDS011;4375;52.486;13.424;2023-05-29T05:16:48;21.60;;;3.80;;
8675;SDS011;4375;52.486;13.424;2023-05-29T05:19:13;19.87;;;3.47;;
8675;SDS011;4375;52.486;13.424;2023-05-29T05:21:39;17.20;;;3.43;;
8675;SDS011;4375;52.486;13.424;2023-05-29T05:24:05;17.40;;;3.33;;
8675;SDS011;4375;52.486;13.424;2023-05-29T05:26:31;16.13;;;3.40;;
8675;SDS011;4375;52.486;13.424;2023-05-29T05:28:56;16.50;;;3.10;;
8675;SDS011;4375;52.486;13.424;2023-05-29T05:31:22;17.67;;;4.10;;
8675;SDS011;4375;52.486;13.424;2023-05-29T05:33:48;17.90;;;3.43;;
8675;SDS011;4375;52.486;13.424;2023-05-29T05:36:14;17.23;;;3.77;;
8675;SDS011;4375;52.486;13.424;2023-05-29T05:38:40;18.23;;;3.80;;
8675;SDS011;4375;52.486;13.424;2023-05-29T05:41:06;17.50;;;3.07;;
8675;SDS011;4375;52.486;13.424;2023-05-29T05:43:32;16.80;;;3.50;;
8675;SDS011;4375;52.486;13.424;2023-05-29T05:45:57;18.70;;;3.73;;
8675;SDS011;4375;52.486;13.424;2023-05-29T05:48:23;19.63;;;3.57;;
8675;SDS011;4375;52.486;13.424;2023-05-29T05:50:48;15.07;;;2.60;;
8675;SDS011;4375;52.486;13.424;2023-05-29T05:53:15;17.10;;;3.37;;
8675;SDS011;4375;52.486;13.424;2023-05-29T05:55:41;18.00;;;3.40;;
8675;SDS011;4375;52.486;13.424;2023-05-29T05:58:07;16.40;;;2.87;;
8675;SDS011;4375;52.486;13.424;2023-05-29T06:00:32;17.50;;;2.80;;
8675;SDS011;4375;52.486;13.424;2023-05-29T06:02:58;21.20;;;3.40;;
8675;SDS011;4375;52.486;13.424;2023-05-29T06:05:25;16.20;;;2.70;;
8675;SDS011;4375;52.486;13.424;2023-05-29T06:07:51;19.43;;;3.43;;
8675;SDS011;4375;52.486;13.424;2023-05-29T06:10:17;16.73;;;3.20;;
8675;SDS011;4375;52.486;13.424;2023-05-29T06:12:42;15.30;;;2.83;;
8675;SDS011;4375;52.486;13.424;2023-05-29T06:15:08;20.73;;;3.00;;
8675;SDS011;4375;52.486;13.424;2023-05-29T06:17:34;17.90;;;2.90;;
8675;SDS011;4375;52.486;13.424;2023-05-29T06:20:00;16.60;;;3.10;;
8675;SDS011;4375;52.486;13.424;2023-05-29T06:22:25;16.37;;;2.67;;
8675;SDS011;4375;52.486;13.424;2023-05-29T06:24:51;16.03;;;2.63;;
8675;SDS011;4375;52.486;13.424;2023-05-29T06:27:17;15.73;;;2.67;;
8675;SDS011;4375;52.486;13.424;2023-05-29T06:29:43;17.30;;;3.40;;
8675;SDS011;4375;52.486;13.424;2023-05-29T06:32:09;16.60;;;3.30;;
8675;SDS011;4375;52.486;13.424;2023-05-29T06:34:35;17.77;;;2.63;;
8675;SDS011;4375;52.486;13.424;2023-05-29T06:37:00;18.53;;;3.33;;
8675;SDS011;4375;52.486;13.424;2023-05-29T06:39:26;15.50;;;2.40;;
8675;SDS011;4375;52.486;13.424;2023-05-29T06:41:52;19.37;;;2.60;;
8675;SDS011;4375;52.486;13.424;2023-05-29T06:44:17;16.37;;;2.43;;
8675;SDS011;4375;52.486;13.424;2023-05-29T06:46:43;15.87;;;2.57;;
8675;SDS011;4375;52.486;13.424;2023-05-29T06:49:08;16.97;;;3.20;;
8675;SDS011;4375;52.486;13.424;2023-05-29T06:51:34;19.70;;;2.87;;
8675;SDS011;4375;52.486;13.424;2023-05-29T06:54:00;15.77;;;3.03;;
8675;SDS011;4375;52.486;13.424;2023-05-29T06:56:26;15.17;;;2.27;;
8675;SDS011;4375;52.486;13.424;2023-05-29T06:58:52;22.53;;;2.87;;
8675;SDS011;4375;52.486;13.424;2023-05-29T07:01:18;17.80;;;3.13;;
8675;SDS011;4375;52.486;13.424;2023-05-29T07:03:43;16.23;;;2.77;;
8675;SDS011;4375;52.486;13.424;2023-05-29T07:06:09;19.47;;;2.60;;
8675;SDS011;4375;52.486;13.424;2023-05-29T07:08:35;15.30;;;2.40;;
8675;SDS011;4375;52.486;13.424;2023-05-29T07:11:01;15.90;;;2.83;;
8675;SDS011;4375;52.486;13.424;2023-05-29T07:13:27;18.80;;;2.90;;
8675;SDS011;4375;52.486;13.424;2023-05-29T07:15:52;15.67;;;2.70;;
8675;SDS011;4375;52.486;13.424;2023-05-29T07:18:18;15.30;;;2.10;;
8675;SDS011;4375;52.486;13.424;2023-05-29T07:20:43;14.90;;;2.23;;
8675;SDS011;4375;52.486;13.424;2023-05-29T07:23:09;18.30;;;2.90;;
8675;SDS011;4375;52.486;13.424;2023-05-29T07:25:35;15.60;;;2.60;;
8675;SDS011;4375;52.486;13.424;2023-05-29T07:28:00;16.63;;;2.57;;
8675;SDS011;4375;52.486;13.424;2023-05-29T07:30:26;16.13;;;2.50;;
8675;SDS011;4375;52.486;13.424;2023-05-29T07:32:52;14.70;;;2.17;;
8675;SDS011;4375;52.486;13.424;2023-05-29T07:35:17;17.80;;;2.67;;
8675;SDS011;4375;52.486;13.424;2023-05-29T07:37:43;16.07;;;2.77;;
8675;SDS011;4375;52.486;13.424;2023-05-29T07:40:08;24.20;;;2.60;;
8675;SDS011;4375;52.486;13.424;2023-05-29T07:42:35;15.80;;;2.30;;
8675;SDS011;4375;52.486;13.424;2023-05-29T07:45:01;16.10;;;2.20;;
8675;SDS011;4375;52.486;13.424;2023-05-29T07:47:27;17.37;;;2.43;;
8675;SDS011;4375;52.486;13.424;2023-05-29T07:49:52;15.93;;;2.33;;
8675;SDS011;4375;52.486;13.424;2023-05-29T07:52:18;16.47;;;2.53;;
8675;SDS011;4375;52.486;13.424;2023-05-29T07:54:44;16.90;;;2.37;;
8675;SDS011;4375;52.486;13.424;2023-05-29T07:57:10;14.60;;;2.43;;
8675;SDS011;4375;52.486;13.424;2023-05-29T07:59:41;14.80;;;2.57;;
8675;SDS011;4375;52.486;13.424;2023-05-29T08:02:08;16.17;;;2.80;;
8675;SDS011;4375;52.486;13.424;2023-05-29T08:04:34;16.10;;;2.60;;
8675;SDS011;4375;52.486;13.424;2023-05-29T08:07:00;15.70;;;2.40;;
8675;SDS011;4375;52.486;13.424;2023-05-29T08:09:28;14.90;;;2.30;;
8675;SDS011;4375;52.486;13.424;2023-05-29T08:11:54;15.10;;;2.30;;
8675;SDS011;4375;52.486;13.424;2023-05-29T08:14:20;16.23;;;2.67;;
8675;SDS011;4375;52.486;13.424;2023-05-29T08:16:45;24.00;;;2.70;;
8675;SDS011;4375;52.486;13.424;2023-05-29T08:19:11;15.57;;;2.40;;
8675;SDS011;4375;52.486;13.424;2023-05-29T08:21:37;16.60;;;2.60;;
8675;SDS011;4375;52.486;13.424;2023-05-29T08:24:03;15.93;;;2.60;;
8675;SDS011;4375;52.486;13.424;2023-05-29T08:26:30;16.53;;;2.90;;
8675;SDS011;4375;52.486;13.424;2023-05-29T08:28:56;17.40;;;2.63;;
8675;SDS011;4375;52.486;13.424;2023-05-29T08:31:24;15.53;;;2.60;;
8675;SDS011;4375;52.486;13.424;2023-05-29T08:33:50;16.47;;;2.60;;
8675;SDS011;4375;52.486;13.424;2023-05-29T08:36:17;15.93;;;2.23;;
8675;SDS011;4375;52.486;13.424;2023-05-29T08:38:42;15.50;;;2.30;;
8675;SDS011;4375;52.486;13.424;2023-05-29T08:41:08;17.90;;;2.60;;
8675;SDS011;4375;52.486;13.424;2023-05-29T08:43:39;15.40;;;2.77;;
8675;SDS011;4375;52.486;13.424;2023-05-29T08:46:07;14.67;;;2.23;;
8675;SDS011;4375;52.486;13.424;2023-05-29T08:48:32;17.67;;;2.50;;
8675;SDS011;4375;52.486;13.424;2023-05-29T08:51:04;15.87;;;2.67;;
8675;SDS011;4375;52.486;13.424;2023-05-29T08:53:32;17.03;;;3.20;;
8675;SDS011;4375;52.486;13.424;2023-05-29T08:55:58;17.07;;;2.70;;
8675;SDS011;4375;52.486;13.424;2023-05-29T08:58:26;16.97;;;2.63;;
8675;SDS011;4375;52.486;13.424;2023-05-29T09:00:52;15.50;;;2.80;;
8675;SDS011;4375;52.486;13.424;2023-05-29T09:03:18;14.70;;;2.40;;
8675;SDS011;4375;52.486;13.424;2023-05-29T09:05:45;14.73;;;2.50;;
8675;SDS011;4375;52.486;13.424;2023-05-29T09:08:11;16.03;;;2.50;;
8675;SDS011;4375;52.486;13.424;2023-05-29T09:10:41;15.77;;;2.90;;
8675;SDS011;4375;52.486;13.424;2023-05-29T09:13:08;16.20;;;2.93;;
8675;SDS011;4375;52.486;13.424;2023-05-29T09:15:35;18.97;;;3.23;;
8675;SDS011;4375;52.486;13.424;2023-05-29T09:18:01;15.80;;;3.03;;
8675;SDS011;4375;52.486;13.424;2023-05-29T09:20:29;15.40;;;2.67;;
8675;SDS011;4375;52.486;13.424;2023-05-29T09:23:06;18.40;;;2.57;;
8675;SDS011;4375;52.486;13.424;2023-05-29T09:25:33;15.30;;;2.60;;
8675;SDS011;4375;52.486;13.424;2023-05-29T09:28:04;16.00;;;3.10;;
8675;SDS011;4375;52.486;13.424;2023-05-29T09:33:08;16.27;;;2.90;;
8675;SDS011;4375;52.486;13.424;2023-05-29T09:35:36;16.83;;;3.07;;
8675;SDS011;4375;52.486;13.424;2023-05-29T09:38:11;16.37;;;2.87;;
8675;SDS011;4375;52.486;13.424;2023-05-29T09:40:37;16.00;;;2.90;;
8675;SDS011;4375;52.486;13.424;2023-05-29T09:43:25;16.07;;;2.70;;
8675;SDS011;4375;52.486;13.424;2023-05-29T09:45:50;15.57;;;2.87;;
8675;SDS011;4375;52.486;13.424;2023-05-29T09:48:22;19.47;;;3.17;;
8675;SDS011;4375;52.486;13.424;2023-05-29T09:50:49;15.07;;;3.07;;
8675;SDS011;4375;52.486;13.424;2023-05-29T09:53:18;16.50;;;3.20;;
8675;SDS011;4375;52.486;13.424;2023-05-29T09:55:52;15.30;;;2.80;;
8675;SDS011;4375;52.486;13.424;2023-05-29T09:58:24;17.03;;;3.40;;
8675;SDS011;4375;52.486;13.424;2023-05-29T10:00:50;16.90;;;2.93;;
8675;SDS011;4375;52.486;13.424;2023-05-29T10:03:17;19.93;;;3.23;;
8675;SDS011;4375;52.486;13.424;2023-05-29T10:05:47;16.07;;;3.00;;
8675;SDS011;4375;52.486;13.424;2023-05-29T10:08:17;16.80;;;3.30;;
8675;SDS011;4375;52.486;13.424;2023-05-29T10:10:45;16.27;;;3.17;;
8675;SDS011;4375;52.486;13.424;2023-05-29T10:13:13;17.73;;;3.47;;
8675;SDS011;4375;52.486;13.424;2023-05-29T10:15:44;17.60;;;3.53;;
8675;SDS011;4375;52.486;13.424;2023-05-29T10:21:07;16.47;;;3.90;;
8675;SDS011;4375;52.486;13.424;2023-05-29T10:23:32;15.57;;;2.77;;
8675;SDS011;4375;52.486;13.424;2023-05-29T10:26:43;15.10;;;2.63;;
8675;SDS011;4375;52.486;13.424;2023-05-29T10:28:55;16.20;;;3.00;;
8675;SDS011;4375;52.486;13.424;2023-05-29T10:31:33;17.07;;;3.60;;
8675;SDS011;4375;52.486;13.424;2023-05-29T10:34:33;16.33;;;3.20;;
8675;SDS011;4375;52.486;13.424;2023-05-29T10:37:27;21.43;;;3.60;;
8675;SDS011;4375;52.486;13.424;2023-05-29T10:40:07;16.97;;;3.23;;
8675;SDS011;4375;52.486;13.424;2023-05-29T10:45:11;16.13;;;2.93;;
8675;SDS011;4375;52.486;13.424;2023-05-29T10:48:39;15.67;;;3.17;;
8675;SDS011;4375;52.486;13.424;2023-05-29T10:50:53;19.27;;;3.53;;
8675;SDS011;4375;52.486;13.424;2023-05-29T10:53:23;17.37;;;3.33;;
8675;SDS011;4375;52.486;13.424;2023-05-29T10:55:53;19.70;;;3.03;;
8675;SDS011;4375;52.486;13.424;2023-05-29T10:58:22;17.70;;;3.20;;
8675;SDS011;4375;52.486;13.424;2023-05-29T11:00:50;15.30;;;2.83;;
8675;SDS011;4375;52.486;13.424;2023-05-29T11:03:21;16.53;;;3.30;;
8675;SDS011;4375;52.486;13.424;2023-05-29T11:08:36;17.43;;;3.03;;
8675;SDS011;4375;52.486;13.424;2023-05-29T11:11:14;17.43;;;3.20;;
8675;SDS011;4375;52.486;13.424;2023-05-29T11:13:40;16.37;;;2.83;;
8675;SDS011;4375;52.486;13.424;2023-05-29T11:19:03;18.33;;;3.13;;
8675;SDS011;4375;52.486;13.424;2023-05-29T11:24:03;14.77;;;2.70;;
8675;SDS011;4375;52.486;13.424;2023-05-29T11:26:32;16.97;;;2.60;;
8675;SDS011;4375;52.486;13.424;2023-05-29T11:28:59;16.73;;;3.13;;
8675;SDS011;4375;52.486;13.424;2023-05-29T11:31:26;16.07;;;3.13;;
8675;SDS011;4375;52.486;13.424;2023-05-29T11:33:56;18.70;;;3.23;;
8675;SDS011;4375;52.486;13.424;2023-05-29T11:36:25;17.17;;;2.93;;
8675;SDS011;4375;52.486;13.424;2023-05-29T11:38:53;18.53;;;3.90;;
8675;SDS011;4375;52.486;13.424;2023-05-29T11:41:18;16.10;;;2.70;;
8675;SDS011;4375;52.486;13.424;2023-05-29T11:43:51;16.83;;;2.80;;
8675;SDS011;4375;52.486;13.424;2023-05-29T11:46:24;16.47;;;3.00;;
8675;SDS011;4375;52.486;13.424;2023-05-29T11:48:51;14.90;;;3.00;;
8675;SDS011;4375;52.486;13.424;2023-05-29T11:51:17;15.70;;;2.87;;
8675;SDS011;4375;52.486;13.424;2023-05-29T11:53:43;17.80;;;3.00;;
8675;SDS011;4375;52.486;13.424;2023-05-29T11:56:11;18.67;;;3.20;;
8675;SDS011;4375;52.486;13.424;2023-05-29T11:58:41;16.33;;;3.10;;
8675;SDS011;4375;52.486;13.424;2023-05-29T12:01:07;16.33;;;2.57;;
8675;SDS011;4375;52.486;13.424;2023-05-29T12:03:40;17.90;;;3.33;;
8675;SDS011;4375;52.486;13.424;2023-05-29T12:06:07;16.03;;;3.27;;
8675;SDS011;4375;52.486;13.424;2023-05-29T12:08:35;16.57;;;3.60;;
8675;SDS011;4375;52.486;13.424;2023-05-29T12:11:01;16.10;;;2.93;;
8675;SDS011;4375;52.486;13.424;2023-05-29T12:13:27;16.03;;;2.40;;
8675;SDS011;4375;52.486;13.424;2023-05-29T12:15:54;16.47;;;3.00;;
8675;SDS011;4375;52.486;13.424;2023-05-29T12:18:23;15.70;;;3.30;;
8675;SDS011;4375;52.486;13.424;2023-05-29T12:20:49;16.73;;;2.90;;
8675;SDS011;4375;52.486;13.424;2023-05-29T12:23:16;19.47;;;3.20;;
8675;SDS011;4375;52.486;13.424;2023-05-29T12:25:45;17.83;;;3.87;;
8675;SDS011;4375;52.486;13.424;2023-05-29T12:28:15;18.27;;;3.03;;
8675;SDS011;4375;52.486;13.424;2023-05-29T12:30:44;18.40;;;3.17;;
8675;SDS011;4375;52.486;13.424;2023-05-29T12:33:33;16.40;;;2.60;;
8675;SDS011;4375;52.486;13.424;2023-05-29T12:36:03;16.23;;;3.13;;
8675;SDS011;4375;52.486;13.424;2023-05-29T12:38:31;15.67;;;2.93;;
8675;SDS011;4375;52.486;13.424;2023-05-29T12:40:57;16.30;;;3.10;;
8675;SDS011;4375;52.486;13.424;2023-05-29T12:43:23;17.33;;;3.07;;
8675;SDS011;4375;52.486;13.424;2023-05-29T12:45:54;19.43;;;3.83;;
8675;SDS011;4375;52.486;13.424;2023-05-29T12:48:26;17.30;;;3.60;;
8675;SDS011;4375;52.486;13.424;2023-05-29T12:50:52;18.63;;;3.60;;
8675;SDS011;4375;52.486;13.424;2023-05-29T12:53:17;16.50;;;3.10;;
8675;SDS011;4375;52.486;13.424;2023-05-29T12:55:43;15.87;;;3.00;;
8675;SDS011;4375;52.486;13.424;2023-05-29T12:58:11;16.90;;;3.43;;
8675;SDS011;4375;52.486;13.424;2023-05-29T13:00:39;22.03;;;2.97;;
8675;SDS011;4375;52.486;13.424;2023-05-29T13:03:06;16.03;;;3.30;;
8675;SDS011;4375;52.486;13.424;2023-05-29T13:05:33;18.87;;;3.30;;
8675;SDS011;4375;52.486;13.424;2023-05-29T13:08:00;17.50;;;3.10;;
8675;SDS011;4375;52.486;13.424;2023-05-29T13:10:26;20.60;;;4.07;;
8675;SDS011;4375;52.486;13.424;2023-05-29T13:12:53;16.77;;;3.07;;
8675;SDS011;4375;52.486;13.424;2023-05-29T13:15:22;18.13;;;3.53;;
8675;SDS011;4375;52.486;13.424;2023-05-29T13:17:48;16.70;;;3.60;;
8675;SDS011;4375;52.486;13.424;2023-05-29T13:20:15;25.13;;;3.97;;
8675;SDS011;4375;52.486;13.424;2023-05-29T13:22:42;18.53;;;3.70;;
8675;SDS011;4375;52.486;13.424;2023-05-29T13:25:10;15.27;;;2.70;;
8675;SDS011;4375;52.486;13.424;2023-05-29T13:27:37;15.90;;;2.90;;
8675;SDS011;4375;52.486;13.424;2023-05-29T13:30:06;16.97;;;2.97;;
8675;SDS011;4375;52.486;13.424;2023-05-29T13:32:32;19.30;;;2.90;;
8675;SDS011;4375;52.486;13.424;2023-05-29T13:34:58;15.60;;;2.93;;
8675;SDS011;4375;52.486;13.424;2023-05-29T13:37:24;15.40;;;2.70;;
8675;SDS011;4375;52.486;13.424;2023-05-29T13:39:50;18.13;;;3.30;;
8675;SDS011;4375;52.486;13.424;2023-05-29T13:42:17;17.30;;;3.27;;
8675;SDS011;4375;52.486;13.424;2023-05-29T13:44:43;17.33;;;3.50;;
8675;SDS011;4375;52.486;13.424;2023-05-29T13:47:09;16.30;;;3.30;;
8675;SDS011;4375;52.486;13.424;2023-05-29T13:49:35;19.20;;;3.17;;
8675;SDS011;4375;52.486;13.424;2023-05-29T13:52:01;16.37;;;3.23;;
8675;SDS011;4375;52.486;13.424;2023-05-29T13:54:27;17.67;;;3.20;;
8675;SDS011;4375;52.486;13.424;2023-05-29T13:57:00;18.70;;;2.80;;
8675;SDS011;4375;52.486;13.424;2023-05-29T13:59:32;15.93;;;3.60;;
8675;SDS011;4375;52.486;13.424;2023-05-29T14:01:58;18.43;;;3.50;;
8675;SDS011;4375;52.486;13.424;2023-05-29T14:04:25;17.80;;;3.10;;
8675;SDS011;4375;52.486;13.424;2023-05-29T14:06:51;18.93;;;3.50;;
8675;SDS011;4375;52.486;13.424;2023-05-29T14:09:17;16.67;;;3.50;;
8675;SDS011;4375;52.486;13.424;2023-05-29T14:11:47;19.47;;;3.90;;
8675;SDS011;4375;52.486;13.424;2023-05-29T14:14:13;15.90;;;2.80;;
8675;SDS011;4375;52.486;13.424;2023-05-29T14:16:40;17.47;;;3.03;;
8675;SDS011;4375;52.486;13.424;2023-05-29T14:19:06;15.60;;;3.10;;
8675;SDS011;4375;52.486;13.424;2023-05-29T14:21:32;20.90;;;3.40;;
8675;SDS011;4375;52.486;13.424;2023-05-29T14:23:57;17.10;;;3.10;;
8675;SDS011;4375;52.486;13.424;2023-05-29T14:26:23;19.80;;;3.53;;
8675;SDS011;4375;52.486;13.424;2023-05-29T14:28:49;16.33;;;2.87;;
8675;SDS011;4375;52.486;13.424;2023-05-29T14:31:14;18.00;;;3.20;;
8675;SDS011;4375;52.486;13.424;2023-05-29T14:33:40;14.70;;;2.30;;
8675;SDS011;4375;52.486;13.424;2023-05-29T14:36:06;15.80;;;2.90;;
8675;SDS011;4375;52.486;13.424;2023-05-29T14:38:32;17.20;;;2.90;;
8675;SDS011;4375;52.486;13.424;2023-05-29T14:40:57;20.10;;;2.97;;
8675;SDS011;4375;52.486;13.424;2023-05-29T14:43:23;16.87;;;2.60;;
8675;SDS011;4375;52.486;13.424;2023-05-29T14:45:49;17.00;;;2.83;;
8675;SDS011;4375;52.486;13.424;2023-05-29T14:48:14;17.97;;;2.93;;
8675;SDS011;4375;52.486;13.424;2023-05-29T14:50:41;16.60;;;3.33;;
8675;SDS011;4375;52.486;13.424;2023-05-29T14:53:07;19.80;;;2.90;;
8675;SDS011;4375;52.486;13.424;2023-05-29T14:55:33;16.10;;;2.60;;
8675;SDS011;4375;52.486;13.424;2023-05-29T14:58:02;18.47;;;2.83;;
8675;SDS011;4375;52.486;13.424;2023-05-29T15:00:29;15.90;;;2.73;;
8675;SDS011;4375;52.486;13.424;2023-05-29T15:02:54;17.83;;;2.90;;
8675;SDS011;4375;52.486;13.424;2023-05-29T15:05:23;19.80;;;2.40;;
8675;SDS011;4375;52.486;13.424;2023-05-29T15:07:53;17.93;;;3.90;;
8675;SDS011;4375;52.486;13.424;2023-05-29T15:10:24;18.27;;;2.87;;
8675;SDS011;4375;52.486;13.424;2023-05-29T15:12:51;18.60;;;2.93;;